createdAt,value
2014-08-25T00:00:02.179Z,14.37
2014-08-25T00:01:06.852Z,14.32
2014-08-25T00:02:11.542Z,14.32
2014-08-25T00:03:16.528Z,14.4
2014-08-25T00:04:21.202Z,14.38
2014-08-25T00:05:25.893Z,14.06
2014-08-25T00:06:30.566Z,14
2014-08-25T00:07:35.239Z,13.78
2014-08-25T00:08:39.930Z,14.02
2014-08-25T00:09:44.635Z,14.17
2014-08-25T00:10:49.606Z,14.35
2014-08-25T00:11:54.294Z,14.13
2014-08-25T00:12:58.968Z,13.96
2014-08-25T00:14:03.659Z,13.72
2014-08-25T00:15:08.333Z,13.65
2014-08-25T00:16:13.022Z,13.92
2014-08-25T00:17:17.696Z,13.98
2014-08-25T00:18:22.682Z,13.63
2014-08-25T00:19:27.356Z,13.88
2014-08-25T00:20:32.047Z,13.92
2014-08-25T00:21:36.720Z,13.62
2014-08-25T00:22:41.393Z,13.73
2014-08-25T00:23:46.381Z,13.72
2014-08-25T00:24:51.351Z,13.82
2014-08-25T00:25:56.040Z,13.92
2014-08-25T00:27:00.715Z,14
2014-08-25T00:28:05.686Z,13.86
2014-08-25T00:29:10.672Z,13.74
2014-08-25T00:30:15.643Z,13.96
2014-08-25T00:31:20.339Z,14.13
2014-08-25T00:32:25.347Z,14.08
2014-08-25T00:33:30.073Z,14.22
2014-08-25T00:34:35.080Z,14.31
2014-08-25T00:35:40.104Z,14.02
2014-08-25T00:36:45.097Z,13.74
2014-08-25T00:37:50.097Z,13.57
2014-08-25T00:38:54.800Z,13.62
2014-08-25T00:39:59.487Z,13.51
2014-08-25T00:41:04.488Z,13.43
2014-08-25T00:42:09.165Z,13.54
2014-08-25T00:43:14.141Z,13.64
2014-08-25T00:44:19.133Z,13.54
2014-08-25T00:45:24.107Z,13.6
2014-08-25T00:46:29.098Z,13.63
2014-08-25T00:47:34.070Z,13.64
2014-08-25T00:48:38.745Z,13.88
2014-08-25T00:49:43.437Z,13.71
2014-08-25T00:50:48.113Z,13.49
2014-08-25T00:51:52.803Z,13.58
2014-08-25T00:52:57.495Z,13.58
2014-08-25T00:54:02.169Z,13.62
2014-08-25T00:55:06.859Z,13.56
2014-08-25T00:56:11.534Z,13.94
2014-08-25T00:57:16.223Z,14.02
2014-08-25T00:58:21.194Z,14.07
2014-08-25T00:59:26.182Z,13.58
2014-08-25T01:00:31.152Z,13.86
2014-08-25T01:01:36.140Z,13.93
2014-08-25T01:02:41.126Z,13.93
2014-08-25T01:03:45.801Z,14.18
2014-08-25T01:04:50.786Z,14.02
2014-08-25T01:05:55.758Z,14.08
2014-08-25T01:07:00.743Z,13.52
2014-08-25T01:08:05.417Z,13.23
2014-08-25T01:09:10.107Z,13.25
2014-08-25T01:10:15.079Z,13.07
2014-08-25T01:11:19.768Z,13.56
2014-08-25T01:12:24.739Z,13.59
2014-08-25T01:13:29.428Z,13.66
2014-08-25T01:14:34.118Z,13.88
2014-08-25T01:15:38.792Z,13.59
2014-08-25T01:16:43.481Z,13.71
2014-08-25T01:17:47.468Z,13.44
2014-08-25T01:18:52.158Z,13.78
2014-08-25T01:19:56.832Z,13.85
2014-08-25T01:21:01.817Z,13.78
2014-08-25T01:22:06.491Z,13.74
2014-08-25T01:23:11.182Z,13.71
2014-08-25T01:24:15.870Z,13.87
2014-08-25T01:25:20.545Z,13.71
2014-08-25T01:26:25.235Z,13.67
2014-08-25T01:27:29.908Z,13.61
2014-08-25T01:28:34.894Z,13.75
2014-08-25T01:29:39.569Z,13.86
2014-08-25T01:30:44.258Z,13.88
2014-08-25T01:31:48.932Z,14
2014-08-25T01:32:53.606Z,13.82
2014-08-25T01:33:58.592Z,13.85
2014-08-25T01:35:03.266Z,13.58
2014-08-25T01:36:07.957Z,13.75
2014-08-25T01:37:12.630Z,13.67
2014-08-25T01:38:17.319Z,13.76
2014-08-25T01:39:21.994Z,13.77
2014-08-25T01:40:26.668Z,13.71
2014-08-25T01:41:31.356Z,13.74
2014-08-25T01:42:36.328Z,13.86
2014-08-25T01:43:41.018Z,13.9
2014-08-25T01:44:45.691Z,13.78
2014-08-25T01:45:50.397Z,13.87
2014-08-25T01:46:55.367Z,14.04
2014-08-25T01:48:00.354Z,14.14
2014-08-25T01:49:05.028Z,14.15
2014-08-25T01:50:10.015Z,13.86
2014-08-25T01:51:14.689Z,13.6
2014-08-25T01:52:19.377Z,13.56
2014-08-25T01:53:24.051Z,13.59
2014-08-25T01:54:28.726Z,13.83
2014-08-25T01:55:33.416Z,13.76
2014-08-25T01:56:38.089Z,13.88
2014-08-25T01:57:42.091Z,13.98
2014-08-25T01:58:46.765Z,13.86
2014-08-25T01:59:51.752Z,13.94
2014-08-25T02:00:56.426Z,13.95
2014-08-25T02:02:01.099Z,13.8
2014-08-25T02:03:06.086Z,13.88
2014-08-25T02:04:10.760Z,13.87
2014-08-25T02:05:14.762Z,13.76
2014-08-25T02:06:19.436Z,13.89
2014-08-25T02:07:24.439Z,13.62
2014-08-25T02:08:29.111Z,13.49
2014-08-25T02:09:34.082Z,13.36
2014-08-25T02:10:38.773Z,13.4
2014-08-25T02:11:43.742Z,13.46
2014-08-25T02:12:48.730Z,13.48
2014-08-25T02:13:53.404Z,13.56
2014-08-25T02:14:58.078Z,13.42
2014-08-25T02:16:02.767Z,13.48
2014-08-25T02:17:07.441Z,13.6
2014-08-25T02:18:12.130Z,13.44
2014-08-25T02:19:16.804Z,13.64
2014-08-25T02:20:21.494Z,13.32
2014-08-25T02:21:26.168Z,13.28
2014-08-25T02:22:30.842Z,13.31
2014-08-25T02:23:35.532Z,13.27
2014-08-25T02:24:40.503Z,13.36
2014-08-25T02:25:45.191Z,13.28
2014-08-25T02:26:50.179Z,13.48
2014-08-25T02:27:55.149Z,13.35
2014-08-25T02:28:59.823Z,13.22
2014-08-25T02:30:04.512Z,13.19
2014-08-25T02:31:09.187Z,13.25
2014-08-25T02:32:14.157Z,13.54
2014-08-25T02:33:18.847Z,13.63
2014-08-25T02:34:23.833Z,13.68
2014-08-25T02:35:28.507Z,13.49
2014-08-25T02:36:33.182Z,13.32
2014-08-25T02:37:37.871Z,13.17
2014-08-25T02:38:42.544Z,13.18
2014-08-25T02:39:47.235Z,13.46
2014-08-25T02:40:51.909Z,13.41
2014-08-25T02:41:56.895Z,13.49
2014-08-25T02:43:01.569Z,13.44
2014-08-25T02:44:06.243Z,13.56
2014-08-25T02:45:10.932Z,13.55
2014-08-25T02:46:15.684Z,13.57
2014-08-25T02:47:20.358Z,13.7
2014-08-25T02:48:25.346Z,13.73
2014-08-25T02:49:30.315Z,13.7
2014-08-25T02:50:34.989Z,13.39
2014-08-25T02:51:39.679Z,13.14
2014-08-25T02:52:44.650Z,13.1
2014-08-25T02:53:49.620Z,13.21
2014-08-25T02:54:54.608Z,13.17
2014-08-25T02:55:59.282Z,13.34
2014-08-25T02:57:03.971Z,13.49
2014-08-25T02:58:08.645Z,13.58
2014-08-25T02:59:13.334Z,13.47
2014-08-25T03:00:18.008Z,13.22
2014-08-25T03:01:22.682Z,13.11
2014-08-25T03:02:27.372Z,13.01
2014-08-25T03:03:32.061Z,13.22
2014-08-25T03:04:37.049Z,13.43
2014-08-25T03:05:42.018Z,13.53
2014-08-25T03:06:47.006Z,13.52
2014-08-25T03:07:51.679Z,13.53
2014-08-25T03:08:56.368Z,13.55
2014-08-25T03:10:01.043Z,13.76
2014-08-25T03:11:05.732Z,13.52
2014-08-25T03:12:10.702Z,13.46
2014-08-25T03:13:15.393Z,13.45
2014-08-25T03:14:20.363Z,13.3
2014-08-25T03:15:25.053Z,13.46
2014-08-25T03:16:29.742Z,13.47
2014-08-25T03:17:34.713Z,13.43
2014-08-25T03:18:39.404Z,13.46
2014-08-25T03:19:44.077Z,13.3
2014-08-25T03:20:48.766Z,13.22
2014-08-25T03:21:53.738Z,13.33
2014-08-25T03:22:58.723Z,13.44
2014-08-25T03:24:03.398Z,13.54
2014-08-25T03:25:08.102Z,13.57
2014-08-25T03:26:13.090Z,13.4
2014-08-25T03:27:17.763Z,13.42
2014-08-25T03:28:22.453Z,13.44
2014-08-25T03:29:27.127Z,13.58
2014-08-25T03:30:31.816Z,13.38
2014-08-25T03:31:36.490Z,13.2
2014-08-25T03:32:41.477Z,13.1
2014-08-25T03:33:46.447Z,13.24
2014-08-25T03:34:51.435Z,13.54
2014-08-25T03:35:56.404Z,13.59
2014-08-25T03:37:01.391Z,13.14
2014-08-25T03:38:06.066Z,13.26
2014-08-25T03:39:10.740Z,13.5
2014-08-25T03:40:15.726Z,13.42
2014-08-25T03:41:20.712Z,13.27
2014-08-25T03:42:25.683Z,12.93
2014-08-25T03:43:30.669Z,12.96
2014-08-25T03:44:35.656Z,13.14
2014-08-25T03:45:39.642Z,13.37
2014-08-25T03:46:44.332Z,13.48
2014-08-25T03:47:49.302Z,13.28
2014-08-25T03:48:53.993Z,13.04
2014-08-25T03:49:58.666Z,12.88
2014-08-25T03:51:03.652Z,12.92
2014-08-25T03:52:08.343Z,13.05
2014-08-25T03:53:13.016Z,13.24
2014-08-25T03:54:18.002Z,13.34
2014-08-25T03:55:22.677Z,13.34
2014-08-25T03:56:27.365Z,13.34
2014-08-25T03:57:32.039Z,13.44
2014-08-25T03:58:36.730Z,13.42
2014-08-25T03:59:41.404Z,13.55
2014-08-25T04:00:45.406Z,13.56
2014-08-25T04:01:50.376Z,13.53
2014-08-25T04:02:55.066Z,13.65
2014-08-25T04:03:59.740Z,13.68
2014-08-25T04:05:04.429Z,13.6
2014-08-25T04:06:09.120Z,13.48
2014-08-25T04:07:13.793Z,13.17
2014-08-25T04:08:18.483Z,13.32
2014-08-25T04:09:23.454Z,13.39
2014-08-25T04:10:28.142Z,13.39
2014-08-25T04:11:32.833Z,13.52
2014-08-25T04:12:37.507Z,13.41
2014-08-25T04:13:42.195Z,13.46
2014-08-25T04:14:46.870Z,13.56
2014-08-25T04:15:51.856Z,13.52
2014-08-25T04:16:56.546Z,13.63
2014-08-25T04:18:01.517Z,13.51
2014-08-25T04:19:06.206Z,13.62
2014-08-25T04:20:10.881Z,13.5
2014-08-25T04:21:15.585Z,13.57
2014-08-25T04:22:20.260Z,13.58
2014-08-25T04:23:25.245Z,13.51
2014-08-25T04:24:30.233Z,13.42
2014-08-25T04:25:34.921Z,13.22
2014-08-25T04:26:39.611Z,13.14
2014-08-25T04:27:44.286Z,13.26
2014-08-25T04:28:48.975Z,13.4
2014-08-25T04:29:53.665Z,13.14
2014-08-25T04:30:58.354Z,13.13
2014-08-25T04:32:03.029Z,12.96
2014-08-25T04:33:07.718Z,12.68
2014-08-25T04:34:12.391Z,12.42
2014-08-25T04:35:17.081Z,12.8
2014-08-25T04:36:22.052Z,13.1
2014-08-25T04:37:27.039Z,13.01
2014-08-25T04:38:31.713Z,13.1
2014-08-25T04:39:36.401Z,12.96
2014-08-25T04:40:41.075Z,13.21
2014-08-25T04:41:46.063Z,13.16
2014-08-25T04:42:50.752Z,12.94
2014-08-25T04:43:55.723Z,12.75
2014-08-25T04:45:00.412Z,13.08
2014-08-25T04:46:05.086Z,13.27
2014-08-25T04:47:10.088Z,13.36
2014-08-25T04:48:14.762Z,13.34
2014-08-25T04:49:19.452Z,13.35
2014-08-25T04:50:24.141Z,13.46
2014-08-25T04:51:28.816Z,13.33
2014-08-25T04:52:33.506Z,13.33
2014-08-25T04:53:38.178Z,13.48
2014-08-25T04:54:42.869Z,13.41
2014-08-25T04:55:47.840Z,13.3
2014-08-25T04:56:52.826Z,13.48
2014-08-25T04:57:57.797Z,13.63
2014-08-25T04:59:02.486Z,13.63
2014-08-25T05:00:07.176Z,13.62
2014-08-25T05:01:11.850Z,13.5
2014-08-25T05:02:16.539Z,13.52
2014-08-25T05:03:21.230Z,13.44
2014-08-25T05:04:26.199Z,13.26
2014-08-25T05:05:30.889Z,13.36
2014-08-25T05:06:35.689Z,13.08
2014-08-25T05:07:40.363Z,13.06
2014-08-25T05:08:45.051Z,13.06
2014-08-25T05:09:50.039Z,12.96
2014-08-25T05:10:55.008Z,12.71
2014-08-25T05:11:59.698Z,12.63
2014-08-25T05:13:04.373Z,12.73
2014-08-25T05:14:09.062Z,12.46
2014-08-25T05:15:13.736Z,12.61
2014-08-25T05:16:18.722Z,12.73
2014-08-25T05:17:23.396Z,12.54
2014-08-25T05:18:28.086Z,12.61
2014-08-25T05:19:32.760Z,12.92
2014-08-25T05:20:37.747Z,12.88
2014-08-25T05:21:42.421Z,12.67
2014-08-25T05:22:47.110Z,12.6
2014-08-25T05:23:51.783Z,12.64
2014-08-25T05:24:56.771Z,12.9
2014-08-25T05:26:01.741Z,12.96
2014-08-25T05:27:06.711Z,12.9
2014-08-25T05:28:11.699Z,13.26
2014-08-25T05:29:16.685Z,13.54
2014-08-25T05:30:21.359Z,13.27
2014-08-25T05:31:26.048Z,12.94
2014-08-25T05:32:31.020Z,12.98
2014-08-25T05:33:36.005Z,12.85
2014-08-25T05:34:40.695Z,12.98
2014-08-25T05:35:45.666Z,12.96
2014-08-25T05:36:50.340Z,12.84
2014-08-25T05:37:55.327Z,12.68
2014-08-25T05:39:00.313Z,12.8
2014-08-25T05:40:05.284Z,12.88
2014-08-25T05:41:10.255Z,12.82
2014-08-25T05:42:15.240Z,12.74
2014-08-25T05:43:19.915Z,12.71
2014-08-25T05:44:24.605Z,12.8
2014-08-25T05:45:29.575Z,12.8
2014-08-25T05:46:34.265Z,12.66
2014-08-25T05:47:38.939Z,12.76
2014-08-25T05:48:43.909Z,12.68
2014-08-25T05:49:48.897Z,12.83
2014-08-25T05:50:53.571Z,12.72
2014-08-25T05:51:58.244Z,12.95
2014-08-25T05:53:02.934Z,13.16
2014-08-25T05:54:07.608Z,13.1
2014-08-25T05:55:12.594Z,13.16
2014-08-25T05:56:17.267Z,12.95
2014-08-25T05:57:21.942Z,13.06
2014-08-25T05:58:26.632Z,13.27
2014-08-25T05:59:31.305Z,13.52
2014-08-25T06:00:36.292Z,13.37
2014-08-25T06:01:41.263Z,13.4
2014-08-25T06:02:45.936Z,13.42
2014-08-25T06:03:50.627Z,13.43
2014-08-25T06:04:55.301Z,13.39
2014-08-25T06:05:59.990Z,13.38
2014-08-25T06:07:04.663Z,13.41
2014-08-25T06:08:09.354Z,13.28
2014-08-25T06:09:14.028Z,13.29
2014-08-25T06:10:19.013Z,13.34
2014-08-25T06:11:23.688Z,13.21
2014-08-25T06:12:28.362Z,13.03
2014-08-25T06:13:33.051Z,13.16
2014-08-25T06:14:37.725Z,13.25
2014-08-25T06:15:42.711Z,13.37
2014-08-25T06:16:47.682Z,13.6
2014-08-25T06:17:52.670Z,13.74
2014-08-25T06:18:57.639Z,13.86
2014-08-25T06:20:02.611Z,13.8
2014-08-25T06:21:07.300Z,14.05
2014-08-25T06:22:12.270Z,14.26
2014-08-25T06:23:17.258Z,14.38
2014-08-25T06:24:22.228Z,14.54
2014-08-25T06:25:27.215Z,14.65
2014-08-25T06:26:31.889Z,14.54
2014-08-25T06:27:36.578Z,14.42
2014-08-25T06:28:41.252Z,14.14
2014-08-25T06:29:45.942Z,13.88
2014-08-25T06:30:50.615Z,13.91
2014-08-25T06:31:55.306Z,13.71
2014-08-25T06:32:59.979Z,13.86
2014-08-25T06:34:04.965Z,14.18
2014-08-25T06:35:09.640Z,14.19
2014-08-25T06:36:14.314Z,14.02
2014-08-25T06:37:19.002Z,13.94
2014-08-25T06:38:23.693Z,14.08
2014-08-25T06:39:28.664Z,14.42
2014-08-25T06:40:33.650Z,14.76
2014-08-25T06:41:38.324Z,14.72
2014-08-25T06:42:43.013Z,14.86
2014-08-25T06:43:47.984Z,15.33
2014-08-25T06:44:52.674Z,15.26
2014-08-25T06:45:57.348Z,15.23
2014-08-25T06:47:02.038Z,15.28
2014-08-25T06:48:06.712Z,14.99
2014-08-25T06:49:11.697Z,15.19
2014-08-25T06:50:16.685Z,15.33
2014-08-25T06:51:21.358Z,15.44
2014-08-25T06:52:26.031Z,15.38
2014-08-25T06:53:31.019Z,15.4
2014-08-25T06:54:36.005Z,15.25
2014-08-25T06:55:40.679Z,15.98
2014-08-25T06:56:45.369Z,15.81
2014-08-25T06:57:50.042Z,15.6
2014-08-25T06:58:55.029Z,15.62
2014-08-25T07:00:00.000Z,15.11
2014-08-25T07:01:04.673Z,15.2
2014-08-25T07:02:09.660Z,15.21
2014-08-25T07:03:14.334Z,15.32
2014-08-25T07:04:19.023Z,15.32
2014-08-25T07:05:23.010Z,15.2
2014-08-25T07:06:27.683Z,15.3
2014-08-25T07:07:32.374Z,15.35
2014-08-25T07:08:37.345Z,15.39
2014-08-25T07:09:42.331Z,15.49
2014-08-25T07:10:47.021Z,15.6
2014-08-25T07:11:51.694Z,16.07
2014-08-25T07:12:56.368Z,16.46
2014-08-25T07:14:01.058Z,16.1
2014-08-25T07:15:05.732Z,15.87
2014-08-25T07:16:10.719Z,16.21
2014-08-25T07:17:15.393Z,16.08
2014-08-25T07:18:20.378Z,15.94
2014-08-25T07:19:25.052Z,16.22
2014-08-25T07:20:29.743Z,16.53
2014-08-25T07:21:34.712Z,17
2014-08-25T07:22:39.386Z,16.86
2014-08-25T07:23:44.373Z,17.06
2014-08-25T07:24:49.048Z,16.95
2014-08-25T07:25:53.721Z,17
2014-08-25T07:26:58.411Z,16.84
2014-08-25T07:28:03.085Z,17.08
2014-08-25T07:29:07.774Z,16.8
2014-08-25T07:30:12.448Z,16.76
2014-08-25T07:31:17.435Z,16.81
2014-08-25T07:32:22.405Z,16.92
2014-08-25T07:33:27.096Z,16.98
2014-08-25T07:34:31.769Z,16.92
2014-08-25T07:35:36.756Z,17.06
2014-08-25T07:36:41.446Z,17.08
2014-08-25T07:37:46.118Z,17.15
2014-08-25T07:38:50.808Z,16.95
2014-08-25T07:39:55.483Z,16.89
2014-08-25T07:41:00.172Z,16.66
2014-08-25T07:42:05.143Z,16.88
2014-08-25T07:43:09.833Z,16.84
2014-08-25T07:44:14.506Z,17.02
2014-08-25T07:45:19.196Z,16.98
2014-08-25T07:46:23.870Z,16.86
2014-08-25T07:47:28.856Z,16.82
2014-08-25T07:48:33.531Z,16.75
2014-08-25T07:49:38.220Z,16.52
2014-08-25T07:50:42.893Z,16.28
2014-08-25T07:51:47.583Z,16.56
2014-08-25T07:52:52.258Z,16.8
2014-08-25T07:53:57.244Z,16.78
2014-08-25T07:55:02.215Z,16.52
2014-08-25T07:56:06.904Z,16.63
2014-08-25T07:57:11.578Z,16.34
2014-08-25T07:58:16.268Z,16.63
2014-08-25T07:59:20.942Z,16.31
2014-08-25T08:00:25.631Z,16.46
2014-08-25T08:01:30.306Z,16.42
2014-08-25T08:02:35.291Z,16.38
2014-08-25T08:03:39.965Z,16.48
2014-08-25T08:04:44.656Z,16.58
2014-08-25T08:05:49.345Z,16.74
2014-08-25T08:06:54.018Z,16.57
2014-08-25T08:07:58.709Z,16.67
2014-08-25T08:09:03.397Z,16.95
2014-08-25T08:10:08.072Z,17.07
2014-08-25T08:11:12.762Z,16.77
2014-08-25T08:12:17.451Z,16.69
2014-08-25T08:13:22.125Z,17.2
2014-08-25T08:14:26.814Z,17.37
2014-08-25T08:15:31.488Z,17.52
2014-08-25T08:16:36.178Z,17.16
2014-08-25T08:17:40.852Z,17.56
2014-08-25T08:18:45.541Z,17.86
2014-08-25T08:19:50.231Z,18.04
2014-08-25T08:20:55.218Z,18.18
2014-08-25T08:21:59.908Z,18.18
2014-08-25T08:23:04.580Z,18.28
2014-08-25T08:24:09.271Z,18.36
2014-08-25T08:25:13.945Z,18.44
2014-08-25T08:26:18.930Z,18.44
2014-08-25T08:27:23.605Z,17.84
2014-08-25T08:28:28.295Z,17.72
2014-08-25T08:29:33.281Z,17.99
2014-08-25T08:30:37.955Z,18.07
2014-08-25T08:31:42.644Z,18.21
2014-08-25T08:32:47.334Z,18.11
2014-08-25T08:33:52.305Z,18.05
2014-08-25T08:34:57.292Z,18.19
2014-08-25T08:36:01.980Z,18.37
2014-08-25T08:37:06.967Z,18.52
2014-08-25T08:38:11.642Z,18.48
2014-08-25T08:39:16.628Z,18.45
2014-08-25T08:40:21.318Z,18.4
2014-08-25T08:41:25.304Z,18.39
2014-08-25T08:42:29.993Z,18.43
2014-08-25T08:43:34.667Z,18.4
2014-08-25T08:44:39.357Z,18.6
2014-08-25T08:45:44.343Z,18.4
2014-08-25T08:46:49.018Z,18.51
2014-08-25T08:47:53.707Z,18.45
2014-08-25T08:48:58.397Z,18.44
2014-08-25T08:50:03.382Z,18.56
2014-08-25T08:51:08.056Z,18.63
2014-08-25T08:52:12.747Z,18.66
2014-08-25T08:53:17.435Z,18.54
2014-08-25T08:54:22.423Z,18.52
2014-08-25T08:55:27.112Z,18.75
2014-08-25T08:56:31.786Z,18.96
2014-08-25T08:57:36.772Z,18.94
2014-08-25T08:58:41.462Z,19.02
2014-08-25T08:59:46.448Z,19.02
2014-08-25T09:00:51.122Z,18.63
2014-08-25T09:01:56.124Z,18.86
2014-08-25T09:03:00.815Z,18.91
2014-08-25T09:04:05.503Z,19.12
2014-08-25T09:05:10.490Z,19.21
2014-08-25T09:06:15.180Z,19.33
2014-08-25T09:07:19.854Z,19.13
2014-08-25T09:08:24.542Z,18.87
2014-08-25T09:09:29.233Z,18.75
2014-08-25T09:10:33.922Z,18.94
2014-08-25T09:11:38.908Z,19.08
2014-08-25T09:12:43.583Z,19.01
2014-08-25T09:13:48.569Z,19.11
2014-08-25T09:14:53.259Z,19.04
2014-08-25T09:15:58.245Z,19.06
2014-08-25T09:17:03.231Z,19.06
2014-08-25T09:18:07.921Z,19
2014-08-25T09:19:12.892Z,19.09
2014-08-25T09:20:17.598Z,19.14
2014-08-25T09:21:22.567Z,19.23
2014-08-25T09:22:27.258Z,19.38
2014-08-25T09:23:31.947Z,19.34
2014-08-25T09:24:36.934Z,19.49
2014-08-25T09:25:41.623Z,19.45
2014-08-25T09:26:46.312Z,19.5
2014-08-25T09:27:51.284Z,19.63
2014-08-25T09:28:56.286Z,19.35
2014-08-25T09:30:00.975Z,19.34
2014-08-25T09:31:05.650Z,19.52
2014-08-25T09:32:10.338Z,19.57
2014-08-25T09:33:15.029Z,19.64
2014-08-25T09:34:20.014Z,19.64
2014-08-25T09:35:24.688Z,19.68
2014-08-25T09:36:29.676Z,19.56
2014-08-25T09:37:34.674Z,19.72
2014-08-25T09:38:39.405Z,19.69
2014-08-25T09:39:44.137Z,19.72
2014-08-25T09:40:49.150Z,19.79
2014-08-25T09:41:53.880Z,19.84
2014-08-25T09:42:58.595Z,19.83
2014-08-25T09:44:03.299Z,19.79
2014-08-25T09:45:07.988Z,19.83
2014-08-25T09:46:12.989Z,19.95
2014-08-25T09:47:17.694Z,19.9
2014-08-25T09:48:22.373Z,19.8
2014-08-25T09:49:27.067Z,19.9
2014-08-25T09:50:31.763Z,20.01
2014-08-25T09:51:36.457Z,20.03
2014-08-25T09:52:41.135Z,20.09
2014-08-25T09:53:45.828Z,20.08
2014-08-25T09:54:50.550Z,20.21
2014-08-25T09:55:55.242Z,20.28
2014-08-25T09:57:00.230Z,19.98
2014-08-25T09:58:05.219Z,20.16
2014-08-25T09:59:09.893Z,20.22
2014-08-25T10:00:14.584Z,20.32
2014-08-25T10:01:19.274Z,19.84
2014-08-25T10:02:23.964Z,19.98
2014-08-25T10:03:28.639Z,20.06
2014-08-25T10:04:33.624Z,20.02
2014-08-25T10:05:38.612Z,19.91
2014-08-25T10:06:43.301Z,19.83
2014-08-25T10:07:47.992Z,19.91
2014-08-25T10:08:52.666Z,19.93
2014-08-25T10:09:57.356Z,19.75
2014-08-25T10:11:02.341Z,19.87
2014-08-25T10:12:07.329Z,20.09
2014-08-25T10:13:12.017Z,20.03
2014-08-25T10:14:16.691Z,20.16
2014-08-25T10:15:21.382Z,20.04
2014-08-25T10:16:26.368Z,20.18
2014-08-25T10:17:31.058Z,20.02
2014-08-25T10:18:35.747Z,20.18
2014-08-25T10:19:40.437Z,20.12
2014-08-25T10:20:45.110Z,20.06
2014-08-25T10:21:49.800Z,20.23
2014-08-25T10:22:54.786Z,20.33
2014-08-25T10:23:59.476Z,20.46
2014-08-25T10:25:04.150Z,20.36
2014-08-25T10:26:09.137Z,20.22
2014-08-25T10:27:13.826Z,20.36
2014-08-25T10:28:18.515Z,20.52
2014-08-25T10:29:23.190Z,20.44
2014-08-25T10:30:28.175Z,20.45
2014-08-25T10:31:33.163Z,20.53
2014-08-25T10:32:37.851Z,20.55
2014-08-25T10:33:42.556Z,20.36
2014-08-25T10:34:46.559Z,20.57
2014-08-25T10:35:51.546Z,20.82
2014-08-25T10:36:56.532Z,20.82
2014-08-25T10:38:01.206Z,20.89
2014-08-25T10:39:05.895Z,21.04
2014-08-25T10:40:10.569Z,21.24
2014-08-25T10:41:15.259Z,21.2
2014-08-25T10:42:19.933Z,21.46
2014-08-25T10:43:24.622Z,21.63
2014-08-25T10:44:29.609Z,21.49
2014-08-25T10:45:33.611Z,21.56
2014-08-25T10:46:37.614Z,21.45
2014-08-25T10:47:42.286Z,21.5
2014-08-25T10:48:47.274Z,21.58
2014-08-25T10:49:51.948Z,21.65
2014-08-25T10:50:56.636Z,21.73
2014-08-25T10:52:01.327Z,21.84
2014-08-25T10:53:06.001Z,21.68
2014-08-25T10:54:10.691Z,21.71
2014-08-25T10:55:15.380Z,22.05
2014-08-25T10:56:20.053Z,22.02
2014-08-25T10:57:24.744Z,21.88
2014-08-25T10:58:29.418Z,21.66
2014-08-25T10:59:34.106Z,21.52
2014-08-25T11:00:38.796Z,21.89
2014-08-25T11:01:43.471Z,22.04
2014-08-25T11:02:48.159Z,21.9
2014-08-25T11:03:52.834Z,21.88
2014-08-25T11:04:57.524Z,21.88
2014-08-25T11:06:02.510Z,21.78
2014-08-25T11:07:07.199Z,21.66
2014-08-25T11:08:11.873Z,21.7
2014-08-25T11:09:16.563Z,21.99
2014-08-25T11:10:21.252Z,22.12
2014-08-25T11:11:25.926Z,22.23
2014-08-25T11:12:30.913Z,22.19
2014-08-25T11:13:35.603Z,22.25
2014-08-25T11:14:40.292Z,22.14
2014-08-25T11:15:44.965Z,22.24
2014-08-25T11:16:49.656Z,22.2
2014-08-25T11:17:54.345Z,21.66
2014-08-25T11:18:59.018Z,21.82
2014-08-25T11:20:03.709Z,22.03
2014-08-25T11:21:08.398Z,21.68
2014-08-25T11:22:13.071Z,21.68
2014-08-25T11:23:18.059Z,21.76
2014-08-25T11:24:22.749Z,21.62
2014-08-25T11:25:27.438Z,21.65
2014-08-25T11:26:32.111Z,21.66
2014-08-25T11:27:36.802Z,21.78
2014-08-25T11:28:41.490Z,21.8
2014-08-25T11:29:46.164Z,21.92
2014-08-25T11:30:50.855Z,21.98
2014-08-25T11:31:55.543Z,22.12
2014-08-25T11:33:00.217Z,21.87
2014-08-25T11:34:04.908Z,21.9
2014-08-25T11:35:09.597Z,21.81
2014-08-25T11:36:14.271Z,21.77
2014-08-25T11:37:18.961Z,21.42
2014-08-25T11:38:23.650Z,21.52
2014-08-25T11:39:28.340Z,21.86
2014-08-25T11:40:33.029Z,21.99
2014-08-25T11:41:37.704Z,21.84
2014-08-25T11:42:42.392Z,21.9
2014-08-25T11:43:46.380Z,21.76
2014-08-25T11:44:51.068Z,21.72
2014-08-25T11:45:56.056Z,21.85
2014-08-25T11:47:00.729Z,21.98
2014-08-25T11:48:05.419Z,21.99
2014-08-25T11:49:10.109Z,22.02
2014-08-25T11:50:15.078Z,21.96
2014-08-25T11:51:19.769Z,21.92
2014-08-25T11:52:24.755Z,22.04
2014-08-25T11:53:28.742Z,21.97
2014-08-25T11:54:33.431Z,21.85
2014-08-25T11:55:38.121Z,21.56
2014-08-25T11:56:42.794Z,21.7
2014-08-25T11:57:48.093Z,21.76
2014-08-25T11:58:52.767Z,21.9
2014-08-25T11:59:57.457Z,22.09
2014-08-25T12:01:02.146Z,22.04
2014-08-25T12:02:07.118Z,22.03
2014-08-25T12:03:11.806Z,21.84
2014-08-25T12:04:16.497Z,21.83
2014-08-25T12:05:21.186Z,21.84
2014-08-25T12:06:25.860Z,21.8
2014-08-25T12:07:30.847Z,21.7
2014-08-25T12:08:35.536Z,21.67
2014-08-25T12:09:40.210Z,21.7
2014-08-25T12:10:44.900Z,21.66
2014-08-25T12:11:49.887Z,21.66
2014-08-25T12:12:54.560Z,21.7
2014-08-25T12:13:59.546Z,21.67
2014-08-25T12:15:04.236Z,21.79
2014-08-25T12:16:08.925Z,21.8
2014-08-25T12:17:13.600Z,21.76
2014-08-25T12:18:18.290Z,21.84
2014-08-25T12:19:23.259Z,21.84
2014-08-25T12:20:27.950Z,21.97
2014-08-25T12:21:32.639Z,22
2014-08-25T12:22:37.312Z,22.02
2014-08-25T12:23:42.003Z,22.11
2014-08-25T12:24:46.692Z,22.09
2014-08-25T12:25:51.367Z,22.18
2014-08-25T12:26:56.352Z,21.95
2014-08-25T12:28:01.043Z,21.98
2014-08-25T12:29:05.731Z,22.02
2014-08-25T12:30:10.437Z,21.99
2014-08-25T12:31:15.126Z,21.9
2014-08-25T12:32:20.098Z,21.92
2014-08-25T12:33:24.786Z,21.88
2014-08-25T12:34:29.460Z,21.77
2014-08-25T12:35:34.448Z,21.94
2014-08-25T12:36:39.137Z,21.84
2014-08-25T12:37:43.827Z,21.82
2014-08-25T12:38:48.797Z,21.79
2014-08-25T12:39:53.487Z,21.9
2014-08-25T12:40:58.176Z,21.95
2014-08-25T12:42:02.850Z,21.74
2014-08-25T12:43:07.540Z,21.81
2014-08-25T12:44:12.214Z,21.94
2014-08-25T12:45:16.904Z,21.99
2014-08-25T12:46:21.889Z,21.86
2014-08-25T12:47:26.579Z,21.85
2014-08-25T12:48:31.254Z,22.03
2014-08-25T12:49:35.942Z,22.04
2014-08-25T12:50:40.930Z,22.11
2014-08-25T12:51:45.604Z,21.94
2014-08-25T12:52:50.293Z,22.04
2014-08-25T12:53:54.998Z,22.18
2014-08-25T12:54:59.672Z,22.04
2014-08-25T12:56:04.362Z,22.04
2014-08-25T12:57:09.051Z,22.02
2014-08-25T12:58:13.726Z,22.02
2014-08-25T12:59:18.414Z,21.95
2014-08-25T13:00:23.104Z,22.11
2014-08-25T13:01:27.779Z,21.98
2014-08-25T13:02:32.467Z,21.84
2014-08-25T13:03:37.455Z,21.81
2014-08-25T13:04:42.441Z,21.88
2014-08-25T13:05:47.115Z,21.82
2014-08-25T13:06:51.804Z,21.94
2014-08-25T13:07:56.494Z,21.79
2014-08-25T13:09:01.168Z,21.9
2014-08-25T13:10:05.873Z,22.04
2014-08-25T13:11:10.859Z,21.76
2014-08-25T13:12:15.533Z,21.87
2014-08-25T13:13:20.238Z,21.96
2014-08-25T13:14:24.929Z,22.03
2014-08-25T13:15:29.602Z,22
2014-08-25T13:16:34.619Z,22.14
2014-08-25T13:17:39.591Z,21.96
2014-08-25T13:18:44.295Z,21.97
2014-08-25T13:19:48.986Z,21.86
2014-08-25T13:20:53.660Z,21.92
2014-08-25T13:21:58.349Z,21.96
2014-08-25T13:23:03.023Z,21.96
2014-08-25T13:24:08.008Z,21.82
2014-08-25T13:25:12.995Z,21.87
2014-08-25T13:26:17.669Z,21.84
2014-08-25T13:27:22.358Z,22
2014-08-25T13:28:27.032Z,21.92
2014-08-25T13:29:32.018Z,21.88
2014-08-25T13:30:36.708Z,21.8
2014-08-25T13:31:41.382Z,21.65
2014-08-25T13:32:46.072Z,21.68
2014-08-25T13:33:50.747Z,21.82
2014-08-25T13:34:55.437Z,21.74
2014-08-25T13:36:00.126Z,21.75
2014-08-25T13:37:05.097Z,21.65
2014-08-25T13:38:10.083Z,21.75
2014-08-25T13:39:14.773Z,21.67
2014-08-25T13:40:19.462Z,21.73
2014-08-25T13:41:24.137Z,21.84
2014-08-25T13:42:28.826Z,21.82
2014-08-25T13:43:33.516Z,21.91
2014-08-25T13:44:38.190Z,21.8
2014-08-25T13:45:42.878Z,21.7
2014-08-25T13:46:47.866Z,21.62
2014-08-25T13:47:52.555Z,21.63
2014-08-25T13:48:57.228Z,21.66
2014-08-25T13:50:02.216Z,21.66
2014-08-25T13:51:06.905Z,21.71
2014-08-25T13:52:11.595Z,21.67
2014-08-25T13:53:16.268Z,21.68
2014-08-25T13:54:21.255Z,21.57
2014-08-25T13:55:25.944Z,21.54
2014-08-25T13:56:30.634Z,21.64